Terminal Aerodrome Forecast
Issued by NWS Upton, NY

Home | Current Version | Previous Version | Text Only | Print | Product List | Glossary On
Versions: 1 2 3 4 5 6 7 8 9 10 11 12 13 14 15 16 17 18 19 20 21 22 23 24 25
000
FTUS41 KOKX 040603 RRA
TAFLGA
TAF
KLGA 040603Z 0406/0506 VRB04KT P6SM SCT050 BKN200
     FM041100 05010KT P6SM BKN025
     FM041500 05014G22KT P6SM BKN030
     FM042000 08015G21KT P6SM BKN040
     FM050200 08012KT P6SM FEW040=

USA.gov is the U.S. government's official web portal to all federal, state and local government web resources and services.